sensor_id;sensor_type;location;lat;lon;timestamp;P1;durP1;ratioP1;P2;durP2;ratioP2
78877;SDS011;68257;43.514;1.498;2023-03-04T00:01:35;45.17;;;22.93;;
78877;SDS011;68257;43.514;1.498;2023-03-04T00:04:00;44.00;;;23.25;;
78877;SDS011;68257;43.514;1.498;2023-03-04T00:06:26;45.47;;;23.50;;
78877;SDS011;68257;43.514;1.498;2023-03-04T00:08:51;46.67;;;23.60;;
78877;SDS011;68257;43.514;1.498;2023-03-04T00:11:17;46.13;;;23.07;;
78877;SDS011;68257;43.514;1.498;2023-03-04T00:13:42;42.87;;;22.70;;
78877;SDS011;68257;43.514;1.498;2023-03-04T00:16:08;42.38;;;21.42;;
78877;SDS011;68257;43.514;1.498;2023-03-04T00:18:33;45.67;;;23.48;;
78877;SDS011;68257;43.514;1.498;2023-03-04T00:20:58;43.03;;;23.10;;
78877;SDS011;68257;43.514;1.498;2023-03-04T00:23:24;46.13;;;22.43;;
78877;SDS011;68257;43.514;1.498;2023-03-04T00:25:49;47.97;;;22.73;;
78877;SDS011;68257;43.514;1.498;2023-03-04T00:28:15;42.97;;;23.37;;
78877;SDS011;68257;43.514;1.498;2023-03-04T00:30:40;43.88;;;21.33;;
78877;SDS011;68257;43.514;1.498;2023-03-04T00:33:05;41.10;;;21.33;;
78877;SDS011;68257;43.514;1.498;2023-03-04T00:35:31;42.47;;;22.73;;
78877;SDS011;68257;43.514;1.498;2023-03-04T00:37:56;43.10;;;22.17;;
78877;SDS011;68257;43.514;1.498;2023-03-04T00:40:21;44.20;;;22.00;;
78877;SDS011;68257;43.514;1.498;2023-03-04T00:42:47;43.33;;;22.40;;
78877;SDS011;68257;43.514;1.498;2023-03-04T00:45:12;41.27;;;21.07;;
78877;SDS011;68257;43.514;1.498;2023-03-04T00:47:38;43.05;;;22.60;;
78877;SDS011;68257;43.514;1.498;2023-03-04T00:50:03;43.23;;;22.97;;
78877;SDS011;68257;43.514;1.498;2023-03-04T00:52:29;45.63;;;23.43;;
78877;SDS011;68257;43.514;1.498;2023-03-04T00:54:54;47.45;;;23.75;;
78877;SDS011;68257;43.514;1.498;2023-03-04T00:57:20;43.40;;;23.27;;
78877;SDS011;68257;43.514;1.498;2023-03-04T00:59:45;47.03;;;24.63;;
78877;SDS011;68257;43.514;1.498;2023-03-04T01:02:10;42.13;;;23.53;;
78877;SDS011;68257;43.514;1.498;2023-03-04T01:04:36;49.58;;;25.33;;
78877;SDS011;68257;43.514;1.498;2023-03-04T01:07:02;44.73;;;23.93;;
78877;SDS011;68257;43.514;1.498;2023-03-04T01:09:27;46.83;;;23.77;;
78877;SDS011;68257;43.514;1.498;2023-03-04T01:11:53;45.63;;;23.90;;
78877;SDS011;68257;43.514;1.498;2023-03-04T01:14:18;45.42;;;22.63;;
78877;SDS011;68257;43.514;1.498;2023-03-04T01:16:44;42.75;;;23.40;;
78877;SDS011;68257;43.514;1.498;2023-03-04T01:19:09;44.60;;;23.27;;
78877;SDS011;68257;43.514;1.498;2023-03-04T01:21:35;42.10;;;22.20;;
78877;SDS011;68257;43.514;1.498;2023-03-04T01:24:01;45.57;;;22.80;;
78877;SDS011;68257;43.514;1.498;2023-03-04T01:26:26;47.70;;;22.23;;
78877;SDS011;68257;43.514;1.498;2023-03-04T01:28:51;43.00;;;21.87;;
78877;SDS011;68257;43.514;1.498;2023-03-04T01:31:17;44.63;;;21.73;;
78877;SDS011;68257;43.514;1.498;2023-03-04T01:33:42;47.00;;;22.47;;
78877;SDS011;68257;43.514;1.498;2023-03-04T01:36:08;40.77;;;20.20;;
78877;SDS011;68257;43.514;1.498;2023-03-04T01:38:33;43.13;;;21.03;;
78877;SDS011;68257;43.514;1.498;2023-03-04T01:40:58;46.33;;;23.47;;
78877;SDS011;68257;43.514;1.498;2023-03-04T01:43:24;43.20;;;22.50;;
78877;SDS011;68257;43.514;1.498;2023-03-04T01:45:52;43.28;;;21.05;;
78877;SDS011;68257;43.514;1.498;2023-03-04T01:48:28;41.22;;;21.35;;
78877;SDS011;68257;43.514;1.498;2023-03-04T01:50:57;40.20;;;20.90;;
78877;SDS011;68257;43.514;1.498;2023-03-04T01:53:27;40.58;;;20.75;;
78877;SDS011;68257;43.514;1.498;2023-03-04T01:55:53;44.27;;;22.57;;
78877;SDS011;68257;43.514;1.498;2023-03-04T01:58:22;40.55;;;21.05;;
78877;SDS011;68257;43.514;1.498;2023-03-04T02:00:50;40.22;;;21.42;;
78877;SDS011;68257;43.514;1.498;2023-03-04T02:03:16;43.37;;;22.77;;
78877;SDS011;68257;43.514;1.498;2023-03-04T02:05:45;40.60;;;21.92;;
78877;SDS011;68257;43.514;1.498;2023-03-04T02:08:12;46.50;;;23.17;;
78877;SDS011;68257;43.514;1.498;2023-03-04T02:10:38;41.10;;;22.35;;
78877;SDS011;68257;43.514;1.498;2023-03-04T02:13:05;43.85;;;22.05;;
78877;SDS011;68257;43.514;1.498;2023-03-04T02:15:30;44.30;;;23.63;;
78877;SDS011;68257;43.514;1.498;2023-03-04T02:17:56;44.07;;;22.27;;
78877;SDS011;68257;43.514;1.498;2023-03-04T02:20:27;42.47;;;21.58;;
78877;SDS011;68257;43.514;1.498;2023-03-04T02:26:12;43.47;;;22.67;;
78877;SDS011;68257;43.514;1.498;2023-03-04T02:28:46;44.30;;;22.90;;
78877;SDS011;68257;43.514;1.498;2023-03-04T02:33:53;43.17;;;20.93;;
78877;SDS011;68257;43.514;1.498;2023-03-04T02:36:19;39.65;;;20.73;;
78877;SDS011;68257;43.514;1.498;2023-03-04T02:38:45;40.63;;;21.45;;
78877;SDS011;68257;43.514;1.498;2023-03-04T02:41:11;54.00;;;26.83;;
78877;SDS011;68257;43.514;1.498;2023-03-04T02:43:39;52.75;;;27.00;;
78877;SDS011;68257;43.514;1.498;2023-03-04T02:46:04;55.77;;;27.93;;
78877;SDS011;68257;43.514;1.498;2023-03-04T02:48:30;40.88;;;21.58;;
78877;SDS011;68257;43.514;1.498;2023-03-04T02:50:55;41.53;;;21.47;;
78877;SDS011;68257;43.514;1.498;2023-03-04T02:53:21;42.13;;;22.83;;
78877;SDS011;68257;43.514;1.498;2023-03-04T02:55:47;46.85;;;24.85;;
78877;SDS011;68257;43.514;1.498;2023-03-04T02:58:12;57.37;;;28.43;;
78877;SDS011;68257;43.514;1.498;2023-03-04T03:00:38;51.28;;;26.10;;
78877;SDS011;68257;43.514;1.498;2023-03-04T03:03:04;49.17;;;25.80;;
78877;SDS011;68257;43.514;1.498;2023-03-04T03:05:30;48.20;;;25.45;;
78877;SDS011;68257;43.514;1.498;2023-03-04T03:07:56;45.85;;;23.85;;
78877;SDS011;68257;43.514;1.498;2023-03-04T03:10:21;46.93;;;24.57;;
78877;SDS011;68257;43.514;1.498;2023-03-04T03:12:47;42.23;;;22.00;;
78877;SDS011;68257;43.514;1.498;2023-03-04T03:15:13;41.90;;;21.70;;
78877;SDS011;68257;43.514;1.498;2023-03-04T03:17:38;39.95;;;20.85;;
78877;SDS011;68257;43.514;1.498;2023-03-04T03:20:04;43.97;;;22.03;;
78877;SDS011;68257;43.514;1.498;2023-03-04T03:22:30;43.63;;;21.83;;
78877;SDS011;68257;43.514;1.498;2023-03-04T03:24:55;41.73;;;21.63;;
78877;SDS011;68257;43.514;1.498;2023-03-04T03:27:21;46.17;;;21.57;;
78877;SDS011;68257;43.514;1.498;2023-03-04T03:29:46;42.23;;;21.33;;
78877;SDS011;68257;43.514;1.498;2023-03-04T03:32:12;41.65;;;20.30;;
78877;SDS011;68257;43.514;1.498;2023-03-04T03:34:37;40.93;;;21.60;;
78877;SDS011;68257;43.514;1.498;2023-03-04T03:37:02;48.13;;;23.07;;
78877;SDS011;68257;43.514;1.498;2023-03-04T03:39:28;47.07;;;22.83;;
78877;SDS011;68257;43.514;1.498;2023-03-04T03:41:53;42.00;;;20.83;;
78877;SDS011;68257;43.514;1.498;2023-03-04T03:44:18;41.33;;;21.60;;
78877;SDS011;68257;43.514;1.498;2023-03-04T03:46:44;43.53;;;22.67;;
78877;SDS011;68257;43.514;1.498;2023-03-04T03:49:10;47.08;;;22.15;;
78877;SDS011;68257;43.514;1.498;2023-03-04T03:51:36;46.23;;;22.93;;
78877;SDS011;68257;43.514;1.498;2023-03-04T03:54:01;46.95;;;22.17;;
78877;SDS011;68257;43.514;1.498;2023-03-04T03:56:27;44.80;;;21.40;;
78877;SDS011;68257;43.514;1.498;2023-03-04T03:58:52;44.60;;;21.90;;
78877;SDS011;68257;43.514;1.498;2023-03-04T04:01:17;41.90;;;21.97;;
78877;SDS011;68257;43.514;1.498;2023-03-04T04:03:43;41.37;;;21.33;;
78877;SDS011;68257;43.514;1.498;2023-03-04T04:06:08;42.25;;;21.20;;
78877;SDS011;68257;43.514;1.498;2023-03-04T04:08:34;43.40;;;21.03;;
78877;SDS011;68257;43.514;1.498;2023-03-04T04:10:59;40.83;;;20.33;;
78877;SDS011;68257;43.514;1.498;2023-03-04T04:13:24;38.00;;;20.67;;
78877;SDS011;68257;43.514;1.498;2023-03-04T04:15:50;43.70;;;21.20;;
78877;SDS011;68257;43.514;1.498;2023-03-04T04:18:16;41.65;;;21.33;;
78877;SDS011;68257;43.514;1.498;2023-03-04T04:20:42;40.87;;;19.73;;
78877;SDS011;68257;43.514;1.498;2023-03-04T04:23:07;38.47;;;19.38;;
78877;SDS011;68257;43.514;1.498;2023-03-04T04:25:33;40.30;;;20.35;;
78877;SDS011;68257;43.514;1.498;2023-03-04T04:27:58;41.00;;;20.00;;
78877;SDS011;68257;43.514;1.498;2023-03-04T04:30:23;40.27;;;20.13;;
78877;SDS011;68257;43.514;1.498;2023-03-04T04:32:49;40.30;;;20.27;;
78877;SDS011;68257;43.514;1.498;2023-03-04T04:35:14;38.22;;;19.95;;
78877;SDS011;68257;43.514;1.498;2023-03-04T04:37:40;38.73;;;20.77;;
78877;SDS011;68257;43.514;1.498;2023-03-04T04:40:05;38.63;;;20.00;;
78877;SDS011;68257;43.514;1.498;2023-03-04T04:42:31;41.72;;;20.58;;
78877;SDS011;68257;43.514;1.498;2023-03-04T04:44:57;38.87;;;20.87;;
78877;SDS011;68257;43.514;1.498;2023-03-04T04:47:22;39.43;;;20.00;;
78877;SDS011;68257;43.514;1.498;2023-03-04T04:49:47;39.17;;;20.10;;
78877;SDS011;68257;43.514;1.498;2023-03-04T04:52:13;38.35;;;19.70;;
78877;SDS011;68257;43.514;1.498;2023-03-04T04:54:38;40.83;;;19.97;;
78877;SDS011;68257;43.514;1.498;2023-03-04T04:57:04;40.57;;;20.30;;
78877;SDS011;68257;43.514;1.498;2023-03-04T04:59:29;40.67;;;20.53;;
78877;SDS011;68257;43.514;1.498;2023-03-04T05:01:55;40.70;;;21.13;;
78877;SDS011;68257;43.514;1.498;2023-03-04T05:04:20;41.13;;;20.48;;
78877;SDS011;68257;43.514;1.498;2023-03-04T05:06:46;43.00;;;20.97;;
78877;SDS011;68257;43.514;1.498;2023-03-04T05:09:11;36.90;;;19.67;;
78877;SDS011;68257;43.514;1.498;2023-03-04T05:11:37;40.22;;;19.42;;
78877;SDS011;68257;43.514;1.498;2023-03-04T05:14:02;40.53;;;20.30;;
78877;SDS011;68257;43.514;1.498;2023-03-04T05:16:28;39.43;;;19.87;;
78877;SDS011;68257;43.514;1.498;2023-03-04T05:18:53;39.87;;;19.80;;
78877;SDS011;68257;43.514;1.498;2023-03-04T05:21:19;39.57;;;20.10;;
78877;SDS011;68257;43.514;1.498;2023-03-04T05:23:44;41.30;;;20.05;;
78877;SDS011;68257;43.514;1.498;2023-03-04T05:26:10;40.88;;;19.67;;
78877;SDS011;68257;43.514;1.498;2023-03-04T05:28:38;42.10;;;20.63;;
78877;SDS011;68257;43.514;1.498;2023-03-04T05:31:03;37.77;;;18.70;;
78877;SDS011;68257;43.514;1.498;2023-03-04T05:33:29;41.07;;;19.77;;
78877;SDS011;68257;43.514;1.498;2023-03-04T05:35:55;42.53;;;20.25;;
78877;SDS011;68257;43.514;1.498;2023-03-04T05:38:20;40.77;;;20.57;;
78877;SDS011;68257;43.514;1.498;2023-03-04T05:40:46;39.40;;;19.07;;
78877;SDS011;68257;43.514;1.498;2023-03-04T05:43:12;40.35;;;19.42;;
78877;SDS011;68257;43.514;1.498;2023-03-04T05:45:37;38.80;;;19.60;;
78877;SDS011;68257;43.514;1.498;2023-03-04T05:48:04;39.75;;;19.60;;
78877;SDS011;68257;43.514;1.498;2023-03-04T05:50:30;38.63;;;19.48;;
78877;SDS011;68257;43.514;1.498;2023-03-04T05:52:55;38.27;;;19.03;;
78877;SDS011;68257;43.514;1.498;2023-03-04T05:55:21;38.28;;;19.92;;
78877;SDS011;68257;43.514;1.498;2023-03-04T05:57:46;41.63;;;20.63;;
78877;SDS011;68257;43.514;1.498;2023-03-04T06:00:12;46.83;;;24.73;;
78877;SDS011;68257;43.514;1.498;2023-03-04T06:02:41;51.05;;;25.67;;
78877;SDS011;68257;43.514;1.498;2023-03-04T06:05:08;49.25;;;26.17;;
78877;SDS011;68257;43.514;1.498;2023-03-04T06:07:37;43.95;;;24.10;;
78877;SDS011;68257;43.514;1.498;2023-03-04T06:10:03;46.03;;;24.30;;
78877;SDS011;68257;43.514;1.498;2023-03-04T06:12:29;34.55;;;19.00;;
78877;SDS011;68257;43.514;1.498;2023-03-04T06:14:54;34.50;;;18.20;;
78877;SDS011;68257;43.514;1.498;2023-03-04T06:17:20;37.93;;;20.00;;
78877;SDS011;68257;43.514;1.498;2023-03-04T06:19:45;38.13;;;19.20;;
78877;SDS011;68257;43.514;1.498;2023-03-04T06:22:11;37.97;;;19.05;;
78877;SDS011;68257;43.514;1.498;2023-03-04T06:24:36;38.10;;;19.83;;
78877;SDS011;68257;43.514;1.498;2023-03-04T06:27:02;39.13;;;20.23;;
78877;SDS011;68257;43.514;1.498;2023-03-04T06:29:27;36.55;;;19.00;;
78877;SDS011;68257;43.514;1.498;2023-03-04T06:31:53;44.13;;;21.83;;
78877;SDS011;68257;43.514;1.498;2023-03-04T06:34:18;43.20;;;25.40;;
78877;SDS011;68257;43.514;1.498;2023-03-04T06:36:44;45.20;;;23.90;;
78877;SDS011;68257;43.514;1.498;2023-03-04T06:39:09;45.65;;;25.25;;
78877;SDS011;68257;43.514;1.498;2023-03-04T06:41:35;38.57;;;20.53;;
78877;SDS011;68257;43.514;1.498;2023-03-04T06:44:00;40.73;;;21.23;;
78877;SDS011;68257;43.514;1.498;2023-03-04T06:46:26;41.47;;;21.30;;
78877;SDS011;68257;43.514;1.498;2023-03-04T06:48:51;39.67;;;22.92;;
78877;SDS011;68257;43.514;1.498;2023-03-04T06:51:17;46.00;;;24.73;;
78877;SDS011;68257;43.514;1.498;2023-03-04T06:53:42;49.17;;;25.27;;
78877;SDS011;68257;43.514;1.498;2023-03-04T06:56:09;50.17;;;28.83;;
78877;SDS011;68257;43.514;1.498;2023-03-04T06:58:35;51.90;;;25.85;;
78877;SDS011;68257;43.514;1.498;2023-03-04T07:03:59;48.13;;;23.98;;
78877;SDS011;68257;43.514;1.498;2023-03-04T07:06:26;44.28;;;23.92;;
78877;SDS011;68257;43.514;1.498;2023-03-04T07:08:52;45.57;;;24.37;;
78877;SDS011;68257;43.514;1.498;2023-03-04T07:11:18;47.60;;;25.13;;
78877;SDS011;68257;43.514;1.498;2023-03-04T07:13:44;48.25;;;25.15;;
78877;SDS011;68257;43.514;1.498;2023-03-04T07:16:10;44.27;;;24.03;;
78877;SDS011;68257;43.514;1.498;2023-03-04T07:18:38;48.20;;;25.65;;
78877;SDS011;68257;43.514;1.498;2023-03-04T07:21:04;47.23;;;26.07;;
78877;SDS011;68257;43.514;1.498;2023-03-04T07:23:29;51.13;;;24.88;;
78877;SDS011;68257;43.514;1.498;2023-03-04T07:25:55;46.47;;;25.47;;
78877;SDS011;68257;43.514;1.498;2023-03-04T07:28:20;50.50;;;34.57;;
78877;SDS011;68257;43.514;1.498;2023-03-04T07:30:46;41.15;;;24.42;;
78877;SDS011;68257;43.514;1.498;2023-03-04T07:33:12;48.83;;;26.57;;
78877;SDS011;68257;43.514;1.498;2023-03-04T07:35:37;45.70;;;25.03;;
78877;SDS011;68257;43.514;1.498;2023-03-04T07:38:03;44.58;;;23.63;;
78877;SDS011;68257;43.514;1.498;2023-03-04T07:40:28;41.63;;;22.33;;
78877;SDS011;68257;43.514;1.498;2023-03-04T07:42:54;46.43;;;24.10;;
78877;SDS011;68257;43.514;1.498;2023-03-04T07:45:20;44.08;;;23.40;;
78877;SDS011;68257;43.514;1.498;2023-03-04T07:47:46;46.50;;;24.77;;
78877;SDS011;68257;43.514;1.498;2023-03-04T07:50:11;56.35;;;33.30;;
78877;SDS011;68257;43.514;1.498;2023-03-04T07:52:41;52.20;;;29.27;;
78877;SDS011;68257;43.514;1.498;2023-03-04T07:55:08;51.17;;;28.83;;
78877;SDS011;68257;43.514;1.498;2023-03-04T07:57:34;52.88;;;28.50;;
78877;SDS011;68257;43.514;1.498;2023-03-04T08:00:00;55.80;;;30.08;;
78877;SDS011;68257;43.514;1.498;2023-03-04T08:02:26;54.00;;;28.23;;
78877;SDS011;68257;43.514;1.498;2023-03-04T08:04:51;52.75;;;27.15;;
78877;SDS011;68257;43.514;1.498;2023-03-04T08:07:16;50.92;;;27.17;;
78877;SDS011;68257;43.514;1.498;2023-03-04T08:09:42;46.90;;;25.23;;
78877;SDS011;68257;43.514;1.498;2023-03-04T08:12:08;48.80;;;25.43;;
78877;SDS011;68257;43.514;1.498;2023-03-04T08:14:33;45.43;;;24.57;;
78877;SDS011;68257;43.514;1.498;2023-03-04T08:16:59;46.05;;;25.25;;
78877;SDS011;68257;43.514;1.498;2023-03-04T08:19:24;45.80;;;25.47;;
78877;SDS011;68257;43.514;1.498;2023-03-04T08:21:49;44.93;;;24.37;;
78877;SDS011;68257;43.514;1.498;2023-03-04T08:24:15;45.60;;;23.73;;
78877;SDS011;68257;43.514;1.498;2023-03-04T08:26:42;49.08;;;24.65;;
78877;SDS011;68257;43.514;1.498;2023-03-04T08:29:13;45.72;;;23.52;;
78877;SDS011;68257;43.514;1.498;2023-03-04T08:31:40;48.38;;;25.95;;
78877;SDS011;68257;43.514;1.498;2023-03-04T08:34:06;46.28;;;25.20;;
78877;SDS011;68257;43.514;1.498;2023-03-04T08:36:34;46.83;;;26.20;;
78877;SDS011;68257;43.514;1.498;2023-03-04T08:38:59;48.72;;;25.20;;
78877;SDS011;68257;43.514;1.498;2023-03-04T08:41:25;47.30;;;26.40;;
78877;SDS011;68257;43.514;1.498;2023-03-04T08:43:51;48.60;;;25.48;;
78877;SDS011;68257;43.514;1.498;2023-03-04T08:46:17;50.00;;;28.23;;
78877;SDS011;68257;43.514;1.498;2023-03-04T08:48:42;57.37;;;31.20;;
78877;SDS011;68257;43.514;1.498;2023-03-04T08:51:11;53.72;;;33.45;;
78877;SDS011;68257;43.514;1.498;2023-03-04T08:53:38;60.37;;;37.07;;
78877;SDS011;68257;43.514;1.498;2023-03-04T08:56:04;52.08;;;31.50;;
78877;SDS011;68257;43.514;1.498;2023-03-04T08:58:29;47.78;;;30.77;;
78877;SDS011;68257;43.514;1.498;2023-03-04T09:00:55;52.20;;;30.03;;
78877;SDS011;68257;43.514;1.498;2023-03-04T09:03:20;41.70;;;23.63;;
78877;SDS011;68257;43.514;1.498;2023-03-04T09:05:46;39.40;;;21.07;;
78877;SDS011;68257;43.514;1.498;2023-03-04T09:08:12;36.10;;;19.88;;
78877;SDS011;68257;43.514;1.498;2023-03-04T09:10:38;36.53;;;19.77;;
78877;SDS011;68257;43.514;1.498;2023-03-04T09:13:04;35.90;;;20.43;;
78877;SDS011;68257;43.514;1.498;2023-03-04T09:15:30;34.50;;;20.13;;
78877;SDS011;68257;43.514;1.498;2023-03-04T09:18:00;35.97;;;19.98;;
78877;SDS011;68257;43.514;1.498;2023-03-04T09:20:26;35.58;;;19.92;;
78877;SDS011;68257;43.514;1.498;2023-03-04T09:22:51;36.93;;;19.50;;
78877;SDS011;68257;43.514;1.498;2023-03-04T09:25:17;34.03;;;18.83;;
78877;SDS011;68257;43.514;1.498;2023-03-04T09:27:42;35.60;;;18.97;;
78877;SDS011;68257;43.514;1.498;2023-03-04T09:30:08;35.03;;;20.63;;
78877;SDS011;68257;43.514;1.498;2023-03-04T09:32:33;33.53;;;19.48;;
78877;SDS011;68257;43.514;1.498;2023-03-04T09:34:59;34.40;;;19.63;;
78877;SDS011;68257;43.514;1.498;2023-03-04T09:37:24;34.83;;;19.93;;
78877;SDS011;68257;43.514;1.498;2023-03-04T09:39:50;36.08;;;19.05;;
78877;SDS011;68257;43.514;1.498;2023-03-04T09:42:26;33.80;;;19.30;;
78877;SDS011;68257;43.514;1.498;2023-03-04T09:44:53;35.67;;;19.53;;
78877;SDS011;68257;43.514;1.498;2023-03-04T09:47:20;36.10;;;21.02;;
78877;SDS011;68257;43.514;1.498;2023-03-04T09:49:51;35.05;;;19.58;;
78877;SDS011;68257;43.514;1.498;2023-03-04T09:58:05;32.30;;;19.03;;
78877;SDS011;68257;43.514;1.498;2023-03-04T10:03:27;32.97;;;20.73;;
78877;SDS011;68257;43.514;1.498;2023-03-04T10:06:01;35.92;;;21.85;;
78877;SDS011;68257;43.514;1.498;2023-03-04T10:11:04;36.65;;;22.92;;
78877;SDS011;68257;43.514;1.498;2023-03-04T10:16:13;36.47;;;24.05;;
78877;SDS011;68257;43.514;1.498;2023-03-04T10:18:45;33.95;;;22.15;;
78877;SDS011;68257;43.514;1.498;2023-03-04T10:21:43;37.28;;;22.80;;
78877;SDS011;68257;43.514;1.498;2023-03-04T10:24:11;33.03;;;22.48;;
78877;SDS011;68257;43.514;1.498;2023-03-04T10:26:39;36.88;;;22.65;;
78877;SDS011;68257;43.514;1.498;2023-03-04T10:29:07;35.35;;;23.23;;
78877;SDS011;68257;43.514;1.498;2023-03-04T10:31:37;32.60;;;23.63;;
78877;SDS011;68257;43.514;1.498;2023-03-04T10:34:03;35.27;;;22.20;;
78877;SDS011;68257;43.514;1.498;2023-03-04T10:39:10;31.87;;;22.70;;
78877;SDS011;68257;43.514;1.498;2023-03-04T10:41:41;33.72;;;23.10;;
78877;SDS011;68257;43.514;1.498;2023-03-04T10:46:36;31.53;;;23.93;;
78877;SDS011;68257;43.514;1.498;2023-03-04T10:49:02;30.20;;;22.20;;
78877;SDS011;68257;43.514;1.498;2023-03-04T10:51:28;31.17;;;23.07;;
78877;SDS011;68257;43.514;1.498;2023-03-04T10:54:06;30.90;;;22.50;;
78877;SDS011;68257;43.514;1.498;2023-03-04T10:56:51;36.27;;;25.80;;
78877;SDS011;68257;43.514;1.498;2023-03-04T11:02:27;31.75;;;22.83;;
78877;SDS011;68257;43.514;1.498;2023-03-04T11:07:20;35.35;;;24.85;;
78877;SDS011;68257;43.514;1.498;2023-03-04T11:09:46;32.92;;;23.35;;
78877;SDS011;68257;43.514;1.498;2023-03-04T11:12:12;33.50;;;24.13;;
78877;SDS011;68257;43.514;1.498;2023-03-04T11:14:49;33.10;;;22.55;;
78877;SDS011;68257;43.514;1.498;2023-03-04T11:17:26;31.83;;;21.42;;
78877;SDS011;68257;43.514;1.498;2023-03-04T11:19:54;32.83;;;22.38;;
78877;SDS011;68257;43.514;1.498;2023-03-04T11:22:26;33.92;;;22.77;;
78877;SDS011;68257;43.514;1.498;2023-03-04T11:24:54;32.08;;;21.92;;
78877;SDS011;68257;43.514;1.498;2023-03-04T11:27:29;33.70;;;22.98;;
78877;SDS011;68257;43.514;1.498;2023-03-04T11:32:55;35.30;;;23.58;;
78877;SDS011;68257;43.514;1.498;2023-03-04T11:38:11;32.22;;;22.80;;
78877;SDS011;68257;43.514;1.498;2023-03-04T11:40:45;32.50;;;23.83;;
78877;SDS011;68257;43.514;1.498;2023-03-04T11:51:40;29.75;;;23.55;;
78877;SDS011;68257;43.514;1.498;2023-03-04T11:56:56;32.37;;;23.93;;
78877;SDS011;68257;43.514;1.498;2023-03-04T12:02:14;29.73;;;23.63;;
78877;SDS011;68257;43.514;1.498;2023-03-04T12:15:27;28.75;;;23.55;;
78877;SDS011;68257;43.514;1.498;2023-03-04T12:20:45;30.08;;;24.42;;
78877;SDS011;68257;43.514;1.498;2023-03-04T12:25:49;31.45;;;23.38;;
78877;SDS011;68257;43.514;1.498;2023-03-04T12:28:25;33.42;;;25.88;;
78877;SDS011;68257;43.514;1.498;2023-03-04T12:31:07;33.83;;;25.10;;
78877;SDS011;68257;43.514;1.498;2023-03-04T12:33:43;31.67;;;24.70;;
78877;SDS011;68257;43.514;1.498;2023-03-04T12:36:30;33.43;;;25.47;;
78877;SDS011;68257;43.514;1.498;2023-03-04T12:39:54;31.73;;;24.38;;
78877;SDS011;68257;43.514;1.498;2023-03-04T12:56:50;31.70;;;25.83;;
78877;SDS011;68257;43.514;1.498;2023-03-04T12:59:19;29.33;;;23.90;;
78877;SDS011;68257;43.514;1.498;2023-03-04T13:01:52;31.85;;;25.77;;
78877;SDS011;68257;43.514;1.498;2023-03-04T13:04:42;30.30;;;23.83;;
78877;SDS011;68257;43.514;1.498;2023-03-04T13:07:35;30.48;;;23.70;;
78877;SDS011;68257;43.514;1.498;2023-03-04T13:10:08;31.88;;;25.92;;
78877;SDS011;68257;43.514;1.498;2023-03-04T13:17:58;29.13;;;23.37;;
78877;SDS011;68257;43.514;1.498;2023-03-04T13:25:33;30.90;;;24.83;;
78877;SDS011;68257;43.514;1.498;2023-03-04T13:32:56;30.23;;;24.88;;
78877;SDS011;68257;43.514;1.498;2023-03-04T13:38:20;32.73;;;26.77;;
78877;SDS011;68257;43.514;1.498;2023-03-04T13:51:37;31.83;;;24.00;;
78877;SDS011;68257;43.514;1.498;2023-03-04T14:10:03;33.03;;;24.30;;
78877;SDS011;68257;43.514;1.498;2023-03-04T14:12:30;33.42;;;24.15;;
78877;SDS011;68257;43.514;1.498;2023-03-04T14:14:58;40.80;;;29.77;;
78877;SDS011;68257;43.514;1.498;2023-03-04T14:17:32;33.58;;;23.70;;
78877;SDS011;68257;43.514;1.498;2023-03-04T14:20:01;33.08;;;24.02;;
78877;SDS011;68257;43.514;1.498;2023-03-04T14:22:30;34.53;;;24.97;;
78877;SDS011;68257;43.514;1.498;2023-03-04T14:25:04;33.22;;;23.60;;
78877;SDS011;68257;43.514;1.498;2023-03-04T14:27:32;31.88;;;23.40;;
78877;SDS011;68257;43.514;1.498;2023-03-04T14:30:01;33.28;;;23.60;;
78877;SDS011;68257;43.514;1.498;2023-03-04T14:32:28;31.90;;;22.08;;
78877;SDS011;68257;43.514;1.498;2023-03-04T14:35:05;31.77;;;21.60;;
78877;SDS011;68257;43.514;1.498;2023-03-04T14:37:37;34.00;;;22.63;;
78877;SDS011;68257;43.514;1.498;2023-03-04T14:40:09;31.92;;;21.95;;
78877;SDS011;68257;43.514;1.498;2023-03-04T14:42:44;34.13;;;22.90;;
78877;SDS011;68257;43.514;1.498;2023-03-04T14:45:11;34.65;;;22.75;;
78877;SDS011;68257;43.514;1.498;2023-03-04T14:47:39;35.30;;;24.73;;
78877;SDS011;68257;43.514;1.498;2023-03-04T14:50:12;33.65;;;23.67;;
78877;SDS011;68257;43.514;1.498;2023-03-04T14:52:40;31.45;;;21.55;;
78877;SDS011;68257;43.514;1.498;2023-03-04T14:55:15;32.08;;;21.67;;
78877;SDS011;68257;43.514;1.498;2023-03-04T14:57:41;30.85;;;22.00;;
78877;SDS011;68257;43.514;1.498;2023-03-04T15:02:58;31.05;;;20.75;;
78877;SDS011;68257;43.514;1.498;2023-03-04T15:05:44;33.67;;;21.83;;
78877;SDS011;68257;43.514;1.498;2023-03-04T15:10:54;33.60;;;21.75;;
78877;SDS011;68257;43.514;1.498;2023-03-04T15:16:09;32.97;;;21.90;;
78877;SDS011;68257;43.514;1.498;2023-03-04T15:18:36;33.92;;;21.88;;
78877;SDS011;68257;43.514;1.498;2023-03-04T15:21:23;31.13;;;21.37;;
78877;SDS011;68257;43.514;1.498;2023-03-04T15:23:54;32.80;;;21.77;;
78877;SDS011;68257;43.514;1.498;2023-03-04T15:26:19;34.97;;;23.27;;
78877;SDS011;68257;43.514;1.498;2023-03-04T15:28:45;32.90;;;22.60;;
78877;SDS011;68257;43.514;1.498;2023-03-04T15:31:18;32.60;;;21.27;;
78877;SDS011;68257;43.514;1.498;2023-03-04T15:33:45;30.57;;;20.87;;
78877;SDS011;68257;43.514;1.498;2023-03-04T15:36:11;32.30;;;21.95;;
78877;SDS011;68257;43.514;1.498;2023-03-04T15:38:39;32.15;;;23.05;;
78877;SDS011;68257;43.514;1.498;2023-03-04T15:41:08;30.60;;;21.40;;
78877;SDS011;68257;43.514;1.498;2023-03-04T15:43:35;33.08;;;22.45;;
78877;SDS011;68257;43.514;1.498;2023-03-04T15:46:01;33.90;;;22.67;;
78877;SDS011;68257;43.514;1.498;2023-03-04T15:48:26;31.08;;;21.58;;
78877;SDS011;68257;43.514;1.498;2023-03-04T15:50:59;31.90;;;21.93;;
78877;SDS011;68257;43.514;1.498;2023-03-04T15:56:23;34.75;;;22.48;;
78877;SDS011;68257;43.514;1.498;2023-03-04T16:01:30;33.28;;;21.30;;
78877;SDS011;68257;43.514;1.498;2023-03-04T16:03:56;33.23;;;21.53;;
78877;SDS011;68257;43.514;1.498;2023-03-04T16:06:21;36.03;;;22.70;;
78877;SDS011;68257;43.514;1.498;2023-03-04T16:08:49;33.53;;;21.65;;
78877;SDS011;68257;43.514;1.498;2023-03-04T16:11:16;31.88;;;19.83;;
78877;SDS011;68257;43.514;1.498;2023-03-04T16:13:43;33.47;;;21.67;;
78877;SDS011;68257;43.514;1.498;2023-03-04T16:16:09;36.27;;;22.43;;
78877;SDS011;68257;43.514;1.498;2023-03-04T16:18:36;34.17;;;21.17;;
78877;SDS011;68257;43.514;1.498;2023-03-04T16:21:01;33.50;;;21.05;;
78877;SDS011;68257;43.514;1.498;2023-03-04T16:23:27;33.43;;;20.50;;
78877;SDS011;68257;43.514;1.498;2023-03-04T16:25:53;30.90;;;20.00;;
78877;SDS011;68257;43.514;1.498;2023-03-04T16:28:20;33.38;;;21.00;;
78877;SDS011;68257;43.514;1.498;2023-03-04T16:30:45;35.75;;;22.15;;
78877;SDS011;68257;43.514;1.498;2023-03-04T16:33:11;32.00;;;20.27;;
78877;SDS011;68257;43.514;1.498;2023-03-04T16:35:38;34.85;;;22.17;;
78877;SDS011;68257;43.514;1.498;2023-03-04T16:38:05;31.00;;;20.73;;
78877;SDS011;68257;43.514;1.498;2023-03-04T16:40:40;33.75;;;20.88;;
78877;SDS011;68257;43.514;1.498;2023-03-04T16:43:05;34.43;;;21.00;;
78877;SDS011;68257;43.514;1.498;2023-03-04T16:45:31;35.95;;;21.30;;